• Join FlightAware (Why Join?)
  • Login
  • US Flag 
03:30PM EDT


 

Airport Tracker/Info


-or-


 

Live Flight TrackerFlight Track Log ✈ N498QS ✈ 21-Nov-2012 ✈ KMVY - KHPN

Flight Track Log - Related Links

Times and Time Zones

All times are in EST time to prevent confusion due to time zone crossing. See the N498QS flight status page for this flight to view local times or setup timezone preferences in your user account.

Time Position Orientation Groundspeed Altitude Reporting Facility
EST Latitude Longitude Course Direction KTS MPH feet Rate Location/Type
12:14PM 41.4306 -70.5739 329° Northwest 204 235 2,400  Level Boston Center
12:15PM 41.4833 -70.6167 329° Northwest 184 212 5,400 3,540 Climbing Boston Center
12:16PM 41.4994 -70.7217 282° West 199 229 9,500 2,640 Climbing Boston Center
12:17PM 41.5322 -70.8178 295° West 280 322 10,700 2,100 Climbing Boston Center
12:18PM 41.5714 -70.9472 292° West 337 388 13,700 2,700 Climbing Boston Center
12:19PM 41.6167 -71.0544 299° West 364 419 16,100 1,200 Climbing Boston Center
12:20PM 41.6744 -71.1894 300° West 380 437 16,100  Level Boston Center
12:21PM 41.7236 -71.2969 302° West 380 437 16,100  Level Boston Center
12:22PM 41.7728 -71.4381 295° West 374 430 16,100  Level Boston Center
12:23PM 41.7906 -71.5658 281° West 374 430 16,100  Level Boston Center
12:24PM 41.8103 -71.7075 281° West 390 449 16,100  Level Boston Center
12:25PM 41.8319 -71.8606 281° West 390 449 16,100  Level Boston Center
12:26PM 41.8472 -71.9914 279° West 390 449 16,100  Level Boston Center
12:27PM 41.8686 -72.1447 281° West 390 449 16,100  Level Boston Center
12:28PM 41.8856 -72.2728 280° West 390 449 16,100  Level Boston Center
12:29PM 41.9064 -72.4233 281° West 390 449 16,100  Level Boston Center
12:30PM 41.9231 -72.5517 280° West 390 449 16,100  Level Boston Center
12:31PM 41.9228 -72.7081 270° West 390 449 16,100 -540 Level Boston Center
12:32PM 41.8828 -72.8361 247° West 380 437 15,100 -1,260 Descending Boston Center
12:33PM 41.8303 -72.9556 239° Southwest 368 423 13,600 -1,500 Descending Boston Center
12:34PM 41.7817 -73.0747 241° Southwest 362 417 12,100 -780 Descending Boston Center
12:35PM 41.7331 -73.1911 241° Southwest 368 423 12,100  Level Boston Center
12:36PM 41.6844 -73.3047 240° Southwest 368 423 12,100 -300 Level Boston Center
12:37PM 41.6333 -73.4206 239° Southwest 362 417 11,500 -900 Descending Boston Center
12:38PM 41.5908 -73.5225 241° Southwest 355 409 10,400 -1,320 Descending Boston Center
12:39PM 41.5333 -73.6500 239° Southwest 287 330 8,400 -1,500 Descending New York TRACON
12:40PM 41.5000 -73.7500 246° West 272 313 6,900 -1,680 Descending New York TRACON
12:41PM 41.4500 -73.8167 225° Southwest 278 320 5,300 -1,800 Descending New York TRACON
12:42PM 41.3833 -73.8167 180° South 267 307 3,500 -1,140 Descending New York TRACON
12:43PM 41.3167 -73.7667 151° Southeast 257 296 3,000 -300 Descending New York TRACON
12:44PM 41.2500 -73.7167 151° Southeast 252 290 3,000  Level New York TRACON
12:45PM 41.2000 -73.6667 143° Southeast 255 293 3,000  Level New York TRACON
12:46PM 41.1333 -73.6167 151° Southeast 256 295 3,000  Level New York TRACON
12:47PM 41.0833 -73.5667 143° Southeast 252 290 3,000 -120 Level New York TRACON
12:48PM 41.0167 -73.5500 169° South 245 282 2,800 -540 Descending New York TRACON
12:49PM 40.9833 -73.6167 236° Southwest 226 260 2,000 -600 Descending New York TRACON
12:50PM 41.0167 -73.6667 311° West 173 199 1,600 -660 Descending New York TRACON
12:51PM 41.0500 -73.6833 339° North 147 169 700 -900 Descending New York TRACON
12:53PM 41.0667 -73.7000 294° West  Level FlightAware Approximate
01:00PM 41.0669 -73.7076 294° West  Level Estimated
01:01PM 41.0667 -73.7000 294° West  Level FlightAware Approximate